createdAt,value
2018-12-15T00:00:15.045Z,23.10
2018-12-15T00:02:43.889Z,24.07
2018-12-15T00:05:12.780Z,20.80
2018-12-15T00:07:41.680Z,20.20
2018-12-15T00:10:10.764Z,20.67
2018-12-15T00:12:39.745Z,18.37
2018-12-15T00:15:09.740Z,18.47
2018-12-15T00:17:38.659Z,17.67
2018-12-15T00:20:08.501Z,14.60
2018-12-15T00:22:37.346Z,16.90
2018-12-15T00:25:06.229Z,15.30
2018-12-15T00:27:35.126Z,15.53
2018-12-15T00:30:04.147Z,17.93
2018-12-15T00:32:32.993Z,14.90
2018-12-15T00:35:01.850Z,17.80
2018-12-15T00:37:30.662Z,15.57
2018-12-15T00:39:59.504Z,18.53
2018-12-15T00:42:32.837Z,19.87
2018-12-15T00:45:01.702Z,22.57
2018-12-15T00:47:30.660Z,16.67
2018-12-15T00:49:59.549Z,23.33
2018-12-15T00:52:28.389Z,21.10
2018-12-15T00:54:57.231Z,23.87
2018-12-15T00:57:26.145Z,27.60
2018-12-15T00:59:55.068Z,21.50
2018-12-15T01:02:23.926Z,23.03
2018-12-15T01:04:52.784Z,22.73
2018-12-15T01:07:21.667Z,23.33
2018-12-15T01:09:50.675Z,20.00
2018-12-15T01:12:19.568Z,20.77
2018-12-15T01:14:48.411Z,18.33
2018-12-15T01:17:20.495Z,16.47
2018-12-15T01:19:49.933Z,16.60
2018-12-15T01:22:18.776Z,18.57
2018-12-15T01:24:47.628Z,15.20
2018-12-15T01:27:16.606Z,19.47
2018-12-15T01:29:45.462Z,19.13
2018-12-15T01:32:14.381Z,21.47
2018-12-15T01:34:43.261Z,16.27
2018-12-15T01:37:12.082Z,21.53
2018-12-15T01:39:40.914Z,17.67
2018-12-15T01:42:09.825Z,15.47
2018-12-15T01:44:38.636Z,17.33
2018-12-15T01:47:07.488Z,15.83
2018-12-15T01:49:36.356Z,14.37
2018-12-15T01:52:05.176Z,15.97
2018-12-15T01:54:34.126Z,16.13
2018-12-15T01:57:03.010Z,13.93
2018-12-15T01:59:32.035Z,16.87
2018-12-15T02:02:00.885Z,19.87
2018-12-15T02:04:29.762Z,15.73
2018-12-15T02:06:58.609Z,20.40
2018-12-15T02:09:27.705Z,21.40
2018-12-15T02:11:56.566Z,19.60
2018-12-15T02:14:25.739Z,18.20
2018-12-15T02:16:54.566Z,19.57
2018-12-15T02:19:23.409Z,21.27
2018-12-15T02:21:52.302Z,20.47
2018-12-15T02:24:21.212Z,21.23
2018-12-15T02:26:50.071Z,24.33
2018-12-15T02:29:18.901Z,20.53
2018-12-15T02:31:47.908Z,21.70
2018-12-15T02:34:16.729Z,19.40
2018-12-15T02:36:45.564Z,21.47
2018-12-15T02:39:14.522Z,21.40
2018-12-15T02:41:47.215Z,21.90
2018-12-15T02:44:14.218Z,20.63
2018-12-15T02:46:43.106Z,23.27
2018-12-15T02:49:11.915Z,20.90
2018-12-15T02:51:40.752Z,17.77
2018-12-15T02:54:09.617Z,20.77
2018-12-15T02:56:38.537Z,21.10
2018-12-15T02:59:07.436Z,21.83
2018-12-15T03:01:36.245Z,20.87
2018-12-15T03:04:05.325Z,21.83
2018-12-15T03:06:34.157Z,22.30
2018-12-15T03:09:02.994Z,20.47
2018-12-15T03:11:31.969Z,23.77
2018-12-15T03:14:00.812Z,18.23
2018-12-15T03:16:29.681Z,22.83
2018-12-15T03:19:05.482Z,18.93
2018-12-15T03:21:34.469Z,19.37
2018-12-15T03:24:03.349Z,21.10
2018-12-15T03:26:32.371Z,19.07
2018-12-15T03:29:01.236Z,25.23
2018-12-15T03:31:30.299Z,19.43
2018-12-15T03:33:59.112Z,19.27
2018-12-15T03:36:27.981Z,22.17
2018-12-15T03:38:56.804Z,19.90
2018-12-15T03:41:25.768Z,16.73
2018-12-15T03:43:54.747Z,20.63
2018-12-15T03:46:23.565Z,21.57
2018-12-15T03:48:52.496Z,23.03
2018-12-15T03:51:21.381Z,20.47
2018-12-15T03:53:50.204Z,22.37
2018-12-15T03:56:19.021Z,22.40
2018-12-15T03:58:48.026Z,21.27
2018-12-15T04:01:16.862Z,23.13
2018-12-15T04:03:45.703Z,20.83
2018-12-15T04:06:14.656Z,24.03
2018-12-15T04:08:43.478Z,17.80
2018-12-15T04:11:12.296Z,24.57
2018-12-15T04:13:41.197Z,19.67
2018-12-15T04:16:10.044Z,22.70
2018-12-15T04:18:38.988Z,22.03
2018-12-15T04:21:07.853Z,20.93
2018-12-15T04:23:36.672Z,21.13
2018-12-15T04:26:05.525Z,21.87
2018-12-15T04:28:34.367Z,19.10
2018-12-15T04:31:03.253Z,22.07
2018-12-15T04:33:32.097Z,21.87
2018-12-15T04:36:07.734Z,19.30
2018-12-15T04:38:36.700Z,22.27
2018-12-15T04:41:05.609Z,19.90
2018-12-15T04:43:34.466Z,20.23
2018-12-15T04:46:03.308Z,22.50
2018-12-15T04:48:32.138Z,17.60
2018-12-15T04:51:01.041Z,22.00
2018-12-15T04:53:29.855Z,19.47
2018-12-15T04:55:58.693Z,21.37
2018-12-15T04:58:27.558Z,21.60
2018-12-15T05:00:56.420Z,17.43
2018-12-15T05:03:25.261Z,18.80
2018-12-15T05:05:54.153Z,23.10
2018-12-15T05:08:22.973Z,22.33
2018-12-15T05:10:51.791Z,21.93
2018-12-15T05:13:20.669Z,19.50
2018-12-15T05:15:49.543Z,22.47
2018-12-15T05:18:18.646Z,22.23
2018-12-15T05:20:47.704Z,25.70
2018-12-15T05:23:16.547Z,26.50
2018-12-15T05:25:45.401Z,19.33
2018-12-15T05:28:14.308Z,22.00
2018-12-15T05:30:43.168Z,26.97
2018-12-15T05:33:11.983Z,21.50
2018-12-15T05:35:40.873Z,23.20
2018-12-15T05:38:09.697Z,20.37
2018-12-15T05:40:38.563Z,21.77
2018-12-15T05:43:07.408Z,24.30
2018-12-15T05:45:36.316Z,20.77
2018-12-15T05:48:05.149Z,27.10
2018-12-15T05:50:33.997Z,22.40
2018-12-15T05:53:02.892Z,23.73
2018-12-15T05:55:31.729Z,26.97
2018-12-15T05:58:00.554Z,22.93
2018-12-15T06:00:29.457Z,28.93
2018-12-15T06:02:58.328Z,27.43
2018-12-15T06:05:27.349Z,25.97
2018-12-15T06:07:56.240Z,26.23
2018-12-15T06:10:25.523Z,22.67
2018-12-15T06:12:54.359Z,29.97
2018-12-15T06:15:23.178Z,27.67
2018-12-15T06:17:52.058Z,26.87
2018-12-15T06:20:20.920Z,26.47
2018-12-15T06:22:49.737Z,29.10
2018-12-15T06:25:20.305Z,24.40
2018-12-15T06:27:49.138Z,27.37
2018-12-15T06:30:17.996Z,30.87
2018-12-15T06:32:47.026Z,28.13
2018-12-15T06:35:15.872Z,32.43
2018-12-15T06:37:44.741Z,26.07
2018-12-15T06:40:14.119Z,28.17
2018-12-15T06:42:42.939Z,28.47
2018-12-15T06:45:11.829Z,26.63
2018-12-15T06:47:40.729Z,28.47
2018-12-15T06:50:09.709Z,28.70
2018-12-15T06:52:38.634Z,27.57
2018-12-15T06:55:08.865Z,29.77
2018-12-15T06:57:37.705Z,31.60
2018-12-15T07:00:06.958Z,33.33
2018-12-15T07:02:35.798Z,28.33
2018-12-15T07:05:05.040Z,29.57
2018-12-15T07:07:33.932Z,28.00
2018-12-15T07:10:03.366Z,27.17
2018-12-15T07:12:32.196Z,32.87
2018-12-15T07:15:01.032Z,30.87
2018-12-15T07:17:29.886Z,33.17
2018-12-15T07:19:58.701Z,33.07
2018-12-15T07:22:27.635Z,36.80
2018-12-15T07:24:56.523Z,34.87
2018-12-15T07:27:25.364Z,40.47
2018-12-15T07:29:54.295Z,35.83
2018-12-15T07:32:23.121Z,36.40
2018-12-15T07:34:52.009Z,39.70
2018-12-15T07:37:20.928Z,37.27
2018-12-15T07:39:50.697Z,51.87
2018-12-15T07:42:19.537Z,37.30
2018-12-15T07:44:51.018Z,42.60
2018-12-15T07:47:19.873Z,44.40
2018-12-15T07:49:48.700Z,39.40
2018-12-15T07:52:17.597Z,40.83
2018-12-15T07:54:46.489Z,40.93
2018-12-15T07:57:15.700Z,39.00
2018-12-15T07:59:44.568Z,36.43
2018-12-15T08:02:13.556Z,40.90
2018-12-15T08:04:42.492Z,42.90
2018-12-15T08:07:11.550Z,37.10
2018-12-15T08:09:40.412Z,33.40
2018-12-15T08:12:14.364Z,41.03
2018-12-15T08:14:43.271Z,40.80
2018-12-15T08:17:12.156Z,37.57
2018-12-15T08:19:41.063Z,38.60
2018-12-15T08:22:09.905Z,40.92
2018-12-15T08:24:38.910Z,46.30
2018-12-15T08:27:07.795Z,43.10
2018-12-15T08:29:36.709Z,43.07
2018-12-15T08:32:05.771Z,41.03
2018-12-15T08:34:34.666Z,35.37
2018-12-15T08:37:03.524Z,32.53
2018-12-15T08:39:32.395Z,36.40
2018-12-15T08:42:01.239Z,38.67
2018-12-15T08:44:30.088Z,38.10
2018-12-15T08:46:59.061Z,37.13
2018-12-15T08:49:27.920Z,39.33
2018-12-15T08:51:57.993Z,34.67
2018-12-15T08:54:26.812Z,35.93
2018-12-15T08:56:55.616Z,37.80
2018-12-15T08:59:25.769Z,33.33
2018-12-15T09:01:54.608Z,34.30
2018-12-15T09:04:23.412Z,38.40
2018-12-15T09:06:52.204Z,37.20
2018-12-15T09:09:22.268Z,35.23
2018-12-15T09:11:51.078Z,33.33
2018-12-15T09:14:19.958Z,32.97
2018-12-15T09:16:48.862Z,36.50
2018-12-15T09:19:17.730Z,34.73
2018-12-15T09:21:47.844Z,36.83
2018-12-15T09:24:16.644Z,35.27
2018-12-15T09:26:45.444Z,35.90
2018-12-15T09:29:14.305Z,35.27
2018-12-15T09:31:43.209Z,37.67
2018-12-15T09:34:12.079Z,37.73
2018-12-15T09:36:40.915Z,40.17
2018-12-15T09:39:09.709Z,40.43
2018-12-15T09:41:38.557Z,42.87
2018-12-15T09:44:08.608Z,36.77
2018-12-15T09:46:37.444Z,39.50
2018-12-15T09:49:06.276Z,42.03
2018-12-15T09:51:35.123Z,37.27
2018-12-15T09:54:03.976Z,40.90
2018-12-15T09:56:32.884Z,40.43
2018-12-15T09:59:01.905Z,37.17
2018-12-15T10:01:30.742Z,37.83
2018-12-15T10:03:59.620Z,39.83
2018-12-15T10:06:28.457Z,36.23
2018-12-15T10:08:57.258Z,35.10
2018-12-15T10:11:26.112Z,35.50
2018-12-15T10:13:55.045Z,42.33
2018-12-15T10:16:23.856Z,36.27
2018-12-15T10:18:52.854Z,35.03
2018-12-15T10:21:21.677Z,37.47
2018-12-15T10:23:50.493Z,37.77
2018-12-15T10:26:19.325Z,35.27
2018-12-15T10:28:48.118Z,41.13
2018-12-15T10:31:22.222Z,41.60
2018-12-15T10:33:51.021Z,38.80
2018-12-15T10:36:19.805Z,42.83
2018-12-15T10:38:48.627Z,38.47
2018-12-15T10:41:17.537Z,40.83
2018-12-15T10:43:46.328Z,41.83
2018-12-15T10:46:15.166Z,41.60
2018-12-15T10:48:43.993Z,41.58
2018-12-15T10:51:12.852Z,45.93
2018-12-15T10:53:42.893Z,41.57
2018-12-15T10:56:11.880Z,42.03
2018-12-15T10:58:40.743Z,39.53
2018-12-15T11:01:14.780Z,40.83
2018-12-15T11:03:44.936Z,40.90
2018-12-15T11:06:13.737Z,44.57
2018-12-15T11:08:42.716Z,45.57
2018-12-15T11:11:12.741Z,41.70
2018-12-15T11:13:47.994Z,46.23
2018-12-15T11:16:16.790Z,45.10
2018-12-15T11:18:45.604Z,43.53
2018-12-15T11:21:14.407Z,53.13
2018-12-15T11:23:43.259Z,44.77
2018-12-15T11:26:12.130Z,50.47
2018-12-15T11:28:41.012Z,41.33
2018-12-15T11:31:09.983Z,40.93
2018-12-15T11:33:38.809Z,49.13
2018-12-15T11:36:07.626Z,50.90
2018-12-15T11:38:36.561Z,47.57
2018-12-15T11:41:05.416Z,48.47
2018-12-15T11:43:34.269Z,54.93
2018-12-15T11:46:03.076Z,54.93
2018-12-15T11:48:33.192Z,51.57
2018-12-15T11:51:02.086Z,57.57
2018-12-15T11:53:30.889Z,61.60
2018-12-15T11:55:59.750Z,58.57
2018-12-15T11:58:28.545Z,60.63
2018-12-15T12:00:57.453Z,58.60
2018-12-15T12:03:26.311Z,60.17
2018-12-15T12:05:55.181Z,58.40
2018-12-15T12:08:24.020Z,60.67
2018-12-15T12:10:52.822Z,55.77
2018-12-15T12:13:21.621Z,62.47
2018-12-15T12:15:51.816Z,60.97
2018-12-15T12:18:20.628Z,57.77
2018-12-15T12:20:49.478Z,54.03
2018-12-15T12:23:18.287Z,56.70
2018-12-15T12:25:47.089Z,66.57
2018-12-15T12:28:17.138Z,61.23
2018-12-15T12:30:46.000Z,63.40
2018-12-15T12:33:14.875Z,66.97
2018-12-15T12:35:43.808Z,65.53
2018-12-15T12:38:12.686Z,54.67
2018-12-15T12:40:41.620Z,61.07
2018-12-15T12:43:10.519Z,63.67
2018-12-15T12:45:39.424Z,65.13
2018-12-15T12:48:08.224Z,65.30
2018-12-15T12:50:38.285Z,67.83
2018-12-15T12:53:07.191Z,70.57
2018-12-15T12:55:36.151Z,78.07
2018-12-15T12:58:05.088Z,68.63
2018-12-15T13:00:33.961Z,68.90
2018-12-15T13:03:02.816Z,72.43
2018-12-15T13:05:31.604Z,74.60
2018-12-15T13:08:00.434Z,66.90
2018-12-15T13:10:29.233Z,72.90
2018-12-15T13:12:58.050Z,71.67
2018-12-15T13:15:28.261Z,74.47
2018-12-15T13:17:57.056Z,72.90
2018-12-15T13:20:25.889Z,67.33
2018-12-15T13:22:54.721Z,67.70
2018-12-15T13:25:23.517Z,74.87
2018-12-15T13:27:52.400Z,74.70
2018-12-15T13:30:21.526Z,64.70
2018-12-15T13:32:50.406Z,68.30
2018-12-15T13:35:19.233Z,67.37
2018-12-15T13:37:49.381Z,70.37
2018-12-15T13:40:18.207Z,66.47
2018-12-15T13:42:47.078Z,64.30
2018-12-15T13:45:16.150Z,68.57
2018-12-15T13:47:45.007Z,60.47
2018-12-15T13:50:13.893Z,66.37
2018-12-15T13:52:44.227Z,66.70
2018-12-15T13:55:13.227Z,63.07
2018-12-15T13:57:42.858Z,60.87
2018-12-15T14:00:11.978Z,60.20
2018-12-15T14:02:40.843Z,57.87
2018-12-15T14:05:09.732Z,63.40
2018-12-15T14:07:38.597Z,62.10
2018-12-15T14:10:07.495Z,63.10
2018-12-15T14:12:36.409Z,68.73
2018-12-15T14:15:05.526Z,59.60
2018-12-15T14:17:34.386Z,61.73
2018-12-15T14:20:03.236Z,62.10
2018-12-15T14:22:32.044Z,65.97
2018-12-15T14:25:00.841Z,66.90
2018-12-15T14:27:29.664Z,72.63
2018-12-15T14:29:58.468Z,56.87
2018-12-15T14:32:27.287Z,65.47
2018-12-15T14:34:56.116Z,71.17
2018-12-15T14:37:25.054Z,68.60
2018-12-15T14:39:53.862Z,68.43
2018-12-15T14:42:22.703Z,65.07
2018-12-15T14:44:51.495Z,76.53
2018-12-15T14:47:20.305Z,67.33
2018-12-15T14:49:50.652Z,67.13
2018-12-15T14:52:19.655Z,69.17
2018-12-15T14:54:48.517Z,69.33
2018-12-15T14:57:21.471Z,71.57
2018-12-15T14:59:50.362Z,66.00
2018-12-15T15:02:19.244Z,70.17
2018-12-15T15:04:48.153Z,76.07
2018-12-15T15:07:17.036Z,66.17
2018-12-15T15:09:45.928Z,73.47
2018-12-15T15:12:14.841Z,69.60
2018-12-15T15:14:43.759Z,65.23
2018-12-15T15:17:12.674Z,72.50
2018-12-15T15:19:41.535Z,65.37
2018-12-15T15:22:10.359Z,79.37
2018-12-15T15:24:39.220Z,65.93
2018-12-15T15:27:10.064Z,66.60
2018-12-15T15:29:38.934Z,71.10
2018-12-15T15:32:07.797Z,74.13
2018-12-15T15:34:36.793Z,68.63
2018-12-15T15:37:05.671Z,70.13
2018-12-15T15:39:34.512Z,65.83
2018-12-15T15:42:04.686Z,70.23
2018-12-15T15:44:33.532Z,66.97
2018-12-15T15:47:02.429Z,64.70
2018-12-15T15:49:31.274Z,66.80
2018-12-15T15:52:00.228Z,66.47
2018-12-15T15:54:29.041Z,68.40
2018-12-15T15:56:57.896Z,71.97
2018-12-15T15:59:26.686Z,67.07
2018-12-15T16:01:55.520Z,77.80
2018-12-15T16:04:25.926Z,82.88
2018-12-15T16:06:54.749Z,69.47
2018-12-15T16:09:23.613Z,70.83
2018-12-15T16:11:52.556Z,72.57
2018-12-15T16:14:21.352Z,64.70
2018-12-15T16:16:50.136Z,71.73
2018-12-15T16:21:52.919Z,72.50
2018-12-15T16:24:24.856Z,70.17
2018-12-15T16:26:53.669Z,71.00
2018-12-15T16:29:22.636Z,72.83
2018-12-15T16:31:52.760Z,71.07
2018-12-15T16:34:21.553Z,68.37
2018-12-15T16:36:50.365Z,65.97
2018-12-15T16:39:20.665Z,71.80
2018-12-15T16:41:49.464Z,71.50
2018-12-15T16:44:18.353Z,68.23
2018-12-15T16:46:48.772Z,74.97
2018-12-15T16:49:17.649Z,72.13
2018-12-15T16:51:46.562Z,69.87
2018-12-15T16:54:16.971Z,71.30
2018-12-15T16:56:45.957Z,78.67
2018-12-15T16:59:14.753Z,80.97
2018-12-15T17:01:45.205Z,78.40
2018-12-15T17:04:14.025Z,70.70
2018-12-15T17:06:42.842Z,72.40
2018-12-15T17:09:11.805Z,71.80
2018-12-15T17:11:40.617Z,69.63
2018-12-15T17:14:09.408Z,77.10
2018-12-15T17:16:38.261Z,78.83
2018-12-15T17:19:07.102Z,71.10
2018-12-15T17:21:35.955Z,72.27
2018-12-15T17:24:04.945Z,70.50
2018-12-15T17:26:33.746Z,73.00
2018-12-15T17:29:02.655Z,73.90
2018-12-15T17:31:32.949Z,68.77
2018-12-15T17:34:01.841Z,69.70
2018-12-15T17:36:30.700Z,71.53
2018-12-15T17:38:59.835Z,70.50
2018-12-15T17:41:28.697Z,68.43
2018-12-15T17:43:57.673Z,65.70
2018-12-15T17:46:26.578Z,71.57
2018-12-15T17:48:55.479Z,67.83
2018-12-15T17:51:25.718Z,66.97
2018-12-15T17:53:54.647Z,69.70
2018-12-15T17:56:23.491Z,70.57
2018-12-15T17:58:53.625Z,65.90
2018-12-15T18:01:22.447Z,87.70
2018-12-15T18:03:51.389Z,86.37
2018-12-15T18:06:20.317Z,94.03
2018-12-15T18:08:49.189Z,74.37
2018-12-15T18:11:18.000Z,68.00
2018-12-15T18:13:46.813Z,63.13
2018-12-15T18:16:15.621Z,60.97
2018-12-15T18:18:44.458Z,93.53
2018-12-15T18:21:13.265Z,102.57
2018-12-15T18:23:42.165Z,92.10
2018-12-15T18:26:10.988Z,85.97
2018-12-15T18:28:39.817Z,69.27
2018-12-15T18:31:09.208Z,68.00
2018-12-15T18:33:38.546Z,73.63
2018-12-15T18:36:07.384Z,62.23
2018-12-15T18:38:36.263Z,68.60
2018-12-15T18:41:05.156Z,71.57
2018-12-15T18:43:34.032Z,61.73
2018-12-15T18:46:02.930Z,58.40
2018-12-15T18:48:31.863Z,67.40
2018-12-15T18:51:00.700Z,71.00
2018-12-15T18:53:29.601Z,70.30
2018-12-15T18:55:58.466Z,66.50
2018-12-15T18:58:27.322Z,69.17
2018-12-15T19:00:56.215Z,76.13
2018-12-15T19:03:25.102Z,64.80
2018-12-15T19:05:53.970Z,71.23
2018-12-15T19:08:24.405Z,66.50
2018-12-15T19:10:53.290Z,64.53
2018-12-15T19:13:22.156Z,61.53
2018-12-15T19:15:56.454Z,64.03
2018-12-15T19:18:25.359Z,60.37
2018-12-15T19:20:54.213Z,68.23
2018-12-15T19:23:23.086Z,65.33
2018-12-15T19:25:51.932Z,66.47
2018-12-15T19:28:22.161Z,63.20
2018-12-15T19:30:51.018Z,66.50
2018-12-15T19:33:19.923Z,61.47
2018-12-15T19:35:48.834Z,67.63
2018-12-15T19:38:17.702Z,62.20
2018-12-15T19:40:46.552Z,62.80
2018-12-15T19:43:16.669Z,70.23
2018-12-15T19:45:45.615Z,63.83
2018-12-15T19:48:14.459Z,72.30
2018-12-15T19:50:43.301Z,67.20
2018-12-15T19:53:12.101Z,77.90
2018-12-15T19:55:41.128Z,77.60
2018-12-15T19:58:09.985Z,72.23
2018-12-15T20:00:38.798Z,67.87
2018-12-15T20:03:07.669Z,71.13
2018-12-15T20:05:36.548Z,70.37
2018-12-15T20:08:05.429Z,63.97
2018-12-15T20:10:34.385Z,65.23
2018-12-15T20:13:03.269Z,62.10
2018-12-15T20:15:32.166Z,60.70
2018-12-15T20:18:01.040Z,65.70
2018-12-15T20:20:31.113Z,59.00
2018-12-15T20:25:38.529Z,61.20
2018-12-15T20:28:07.369Z,60.17
2018-12-15T20:30:37.469Z,55.67
2018-12-15T20:33:06.342Z,61.77
2018-12-15T20:35:35.189Z,61.97
2018-12-15T20:38:04.079Z,59.60
2018-12-15T20:40:32.995Z,56.23
2018-12-15T20:43:01.924Z,55.70
2018-12-15T20:45:30.795Z,61.57
2018-12-15T20:47:59.646Z,60.50
2018-12-15T20:50:28.529Z,62.73
2018-12-15T20:52:57.481Z,57.53
2018-12-15T20:55:26.290Z,60.40
2018-12-15T20:57:55.165Z,60.87
2018-12-15T21:00:24.037Z,55.73
2018-12-15T21:02:52.934Z,52.43
2018-12-15T21:05:21.813Z,53.27
2018-12-15T21:07:50.702Z,59.47
2018-12-15T21:10:19.572Z,56.30
2018-12-15T21:12:48.457Z,52.77
2018-12-15T21:15:26.705Z,58.33
2018-12-15T21:17:55.545Z,57.60
2018-12-15T21:20:24.428Z,55.87
2018-12-15T21:22:53.367Z,62.70
2018-12-15T21:25:22.185Z,67.93
2018-12-15T21:27:51.000Z,60.73
2018-12-15T21:30:20.137Z,53.63
2018-12-15T21:32:49.053Z,58.20
2018-12-15T21:35:18.303Z,56.67
2018-12-15T21:37:47.555Z,62.20
2018-12-15T21:40:16.775Z,53.37
2018-12-15T21:42:46.390Z,52.47
2018-12-15T21:45:15.703Z,63.77
2018-12-15T21:47:44.745Z,56.43
2018-12-15T21:50:14.881Z,55.23
2018-12-15T21:52:44.351Z,58.97
2018-12-15T21:55:14.165Z,54.10
2018-12-15T21:57:43.065Z,68.20
2018-12-15T22:00:12.049Z,60.57
2018-12-15T22:02:40.954Z,56.93
2018-12-15T22:05:09.802Z,66.87
2018-12-15T22:07:38.729Z,60.17
2018-12-15T22:10:10.481Z,66.70
2018-12-15T22:12:39.834Z,54.80
2018-12-15T22:15:09.388Z,55.70
2018-12-15T22:17:40.011Z,62.27
2018-12-15T22:20:10.582Z,55.83
2018-12-15T22:22:39.430Z,54.40
2018-12-15T22:25:08.278Z,59.50
2018-12-15T22:27:37.499Z,62.10
2018-12-15T22:30:07.596Z,54.87
2018-12-15T22:32:36.472Z,60.23
2018-12-15T22:35:05.956Z,54.53
2018-12-15T22:37:35.724Z,63.17
2018-12-15T22:40:05.559Z,56.80
2018-12-15T22:42:35.178Z,57.03
2018-12-15T22:45:05.465Z,63.93
2018-12-15T22:47:34.405Z,54.83
2018-12-15T22:50:03.327Z,56.37
2018-12-15T22:52:32.195Z,58.20
2018-12-15T22:55:01.041Z,52.33
2018-12-15T22:57:29.938Z,49.60
2018-12-15T23:02:33.048Z,58.17
2018-12-15T23:05:01.933Z,55.93
2018-12-15T23:07:30.835Z,55.73
2018-12-15T23:09:59.685Z,56.63
2018-12-15T23:12:28.661Z,59.40
2018-12-15T23:14:57.568Z,57.03
2018-12-15T23:17:26.431Z,54.43
2018-12-15T23:19:56.693Z,55.87
2018-12-15T23:22:25.688Z,58.47
2018-12-15T23:24:54.700Z,59.73
2018-12-15T23:27:23.616Z,59.17
2018-12-15T23:29:52.436Z,55.10
2018-12-15T23:32:21.278Z,61.97
2018-12-15T23:34:50.150Z,62.83
2018-12-15T23:37:18.974Z,57.90
2018-12-15T23:39:47.813Z,63.97
2018-12-15T23:42:16.740Z,51.37
2018-12-15T23:44:45.569Z,59.10
2018-12-15T23:47:14.994Z,65.43
2018-12-15T23:49:43.857Z,63.90
2018-12-15T23:52:12.721Z,61.53
2018-12-15T23:54:41.620Z,62.53
2018-12-15T23:57:10.436Z,65.33
2018-12-15T23:59:39.465Z,60.30
